sensor_id;sensor_type;location;lat;lon;timestamp;P1;durP1;ratioP1;P2;durP2;ratioP2
44452;SDS011;30155;52.164;21.236;2023-03-02T00:02:33;58.10;;;35.50;;
44452;SDS011;30155;52.164;21.236;2023-03-02T00:07:31;64.70;;;37.50;;
44452;SDS011;30155;52.164;21.236;2023-03-02T00:12:26;65.60;;;35.70;;
44452;SDS011;30155;52.164;21.236;2023-03-02T00:17:20;59.20;;;34.90;;
44452;SDS011;30155;52.164;21.236;2023-03-02T00:22:18;57.10;;;34.50;;
44452;SDS011;30155;52.164;21.236;2023-03-02T00:27:11;60.50;;;34.80;;
44452;SDS011;30155;52.164;21.236;2023-03-02T00:32:03;52.50;;;32.80;;
44452;SDS011;30155;52.164;21.236;2023-03-02T00:36:57;53.40;;;31.80;;
44452;SDS011;30155;52.164;21.236;2023-03-02T00:41:50;57.00;;;34.50;;
44452;SDS011;30155;52.164;21.236;2023-03-02T00:46:43;57.20;;;35.80;;
44452;SDS011;30155;52.164;21.236;2023-03-02T00:51:37;60.80;;;35.70;;
44452;SDS011;30155;52.164;21.236;2023-03-02T00:56:29;55.40;;;33.40;;
44452;SDS011;30155;52.164;21.236;2023-03-02T01:01:23;60.20;;;35.70;;
44452;SDS011;30155;52.164;21.236;2023-03-02T01:06:17;59.20;;;33.60;;
44452;SDS011;30155;52.164;21.236;2023-03-02T01:11:16;58.90;;;34.90;;
44452;SDS011;30155;52.164;21.236;2023-03-02T01:16:11;59.90;;;34.80;;
44452;SDS011;30155;52.164;21.236;2023-03-02T01:21:05;62.00;;;36.30;;
44452;SDS011;30155;52.164;21.236;2023-03-02T01:26:03;54.30;;;32.20;;
44452;SDS011;30155;52.164;21.236;2023-03-02T01:30:57;57.40;;;34.00;;
44452;SDS011;30155;52.164;21.236;2023-03-02T01:35:51;63.10;;;34.10;;
44452;SDS011;30155;52.164;21.236;2023-03-02T01:40:44;58.90;;;34.70;;
44452;SDS011;30155;52.164;21.236;2023-03-02T01:50:42;60.70;;;37.20;;
44452;SDS011;30155;52.164;21.236;2023-03-02T01:55:37;64.40;;;35.80;;
44452;SDS011;30155;52.164;21.236;2023-03-02T02:00:32;63.90;;;38.20;;
44452;SDS011;30155;52.164;21.236;2023-03-02T02:05:28;68.30;;;38.50;;
44452;SDS011;30155;52.164;21.236;2023-03-02T02:10:21;82.80;;;41.80;;
44452;SDS011;30155;52.164;21.236;2023-03-02T02:15:16;79.80;;;41.50;;
44452;SDS011;30155;52.164;21.236;2023-03-02T02:26:07;80.00;;;43.20;;
44452;SDS011;30155;52.164;21.236;2023-03-02T02:30:35;71.00;;;37.80;;
44452;SDS011;30155;52.164;21.236;2023-03-02T02:35:32;73.80;;;39.70;;
44452;SDS011;30155;52.164;21.236;2023-03-02T02:45:50;78.90;;;39.40;;
44452;SDS011;30155;52.164;21.236;2023-03-02T02:50:45;48.90;;;28.40;;
44452;SDS011;30155;52.164;21.236;2023-03-02T02:55:38;71.80;;;39.00;;
44452;SDS011;30155;52.164;21.236;2023-03-02T03:00:33;60.30;;;32.20;;
44452;SDS011;30155;52.164;21.236;2023-03-02T03:05:27;56.20;;;31.00;;
44452;SDS011;30155;52.164;21.236;2023-03-02T03:15:13;59.90;;;29.60;;
44452;SDS011;30155;52.164;21.236;2023-03-02T03:20:06;62.70;;;31.70;;
44452;SDS011;30155;52.164;21.236;2023-03-02T03:25:05;68.10;;;34.80;;
44452;SDS011;30155;52.164;21.236;2023-03-02T03:29:59;65.60;;;33.70;;
44452;SDS011;30155;52.164;21.236;2023-03-02T03:34:53;58.70;;;28.70;;
44452;SDS011;30155;52.164;21.236;2023-03-02T03:39:49;39.10;;;21.20;;
44452;SDS011;30155;52.164;21.236;2023-03-02T03:44:43;60.60;;;30.10;;
44452;SDS011;30155;52.164;21.236;2023-03-02T03:49:36;61.60;;;28.90;;
44452;SDS011;30155;52.164;21.236;2023-03-02T03:54:29;59.20;;;31.60;;
44452;SDS011;30155;52.164;21.236;2023-03-02T03:59:23;61.90;;;29.60;;
44452;SDS011;30155;52.164;21.236;2023-03-02T04:04:30;58.30;;;29.00;;
44452;SDS011;30155;52.164;21.236;2023-03-02T04:09:29;62.70;;;31.30;;
44452;SDS011;30155;52.164;21.236;2023-03-02T04:14:29;62.60;;;28.20;;
44452;SDS011;30155;52.164;21.236;2023-03-02T04:19:22;56.80;;;27.30;;
44452;SDS011;30155;52.164;21.236;2023-03-02T04:24:19;57.20;;;28.90;;
44452;SDS011;30155;52.164;21.236;2023-03-02T04:29:16;61.80;;;30.30;;
44452;SDS011;30155;52.164;21.236;2023-03-02T04:34:09;62.50;;;32.20;;
44452;SDS011;30155;52.164;21.236;2023-03-02T04:39:06;58.10;;;31.30;;
44452;SDS011;30155;52.164;21.236;2023-03-02T04:43:59;61.50;;;30.80;;
44452;SDS011;30155;52.164;21.236;2023-03-02T04:48:52;64.70;;;32.20;;
44452;SDS011;30155;52.164;21.236;2023-03-02T04:53:45;59.90;;;28.40;;
44452;SDS011;30155;52.164;21.236;2023-03-02T04:58:38;57.50;;;30.40;;
44452;SDS011;30155;52.164;21.236;2023-03-02T05:03:31;57.30;;;28.70;;
44452;SDS011;30155;52.164;21.236;2023-03-02T05:08:24;49.60;;;26.10;;
44452;SDS011;30155;52.164;21.236;2023-03-02T05:13:16;48.90;;;25.30;;
44452;SDS011;30155;52.164;21.236;2023-03-02T05:18:09;50.20;;;25.60;;
44452;SDS011;30155;52.164;21.236;2023-03-02T05:23:05;41.50;;;21.90;;
44452;SDS011;30155;52.164;21.236;2023-03-02T05:28:00;61.00;;;31.10;;
44452;SDS011;30155;52.164;21.236;2023-03-02T05:32:54;55.90;;;30.00;;
44452;SDS011;30155;52.164;21.236;2023-03-02T05:37:47;49.70;;;26.90;;
44452;SDS011;30155;52.164;21.236;2023-03-02T05:42:41;55.70;;;29.00;;
44452;SDS011;30155;52.164;21.236;2023-03-02T05:47:34;58.50;;;28.10;;
44452;SDS011;30155;52.164;21.236;2023-03-02T05:52:29;52.80;;;25.30;;
44452;SDS011;30155;52.164;21.236;2023-03-02T05:57:32;54.90;;;27.80;;
44452;SDS011;30155;52.164;21.236;2023-03-02T06:02:25;54.80;;;26.80;;
44452;SDS011;30155;52.164;21.236;2023-03-02T06:07:18;56.10;;;28.80;;
44452;SDS011;30155;52.164;21.236;2023-03-02T06:12:11;51.40;;;27.60;;
44452;SDS011;30155;52.164;21.236;2023-03-02T06:17:03;54.90;;;29.40;;
44452;SDS011;30155;52.164;21.236;2023-03-02T06:21:56;53.90;;;28.30;;
44452;SDS011;30155;52.164;21.236;2023-03-02T06:26:51;61.40;;;30.10;;
44452;SDS011;30155;52.164;21.236;2023-03-02T06:31:45;57.40;;;29.40;;
44452;SDS011;30155;52.164;21.236;2023-03-02T06:36:38;54.80;;;29.00;;
44452;SDS011;30155;52.164;21.236;2023-03-02T06:41:31;60.00;;;31.50;;
44452;SDS011;30155;52.164;21.236;2023-03-02T06:46:25;65.00;;;35.70;;
44452;SDS011;30155;52.164;21.236;2023-03-02T06:51:17;55.80;;;30.20;;
44452;SDS011;30155;52.164;21.236;2023-03-02T06:56:10;63.70;;;34.40;;
44452;SDS011;30155;52.164;21.236;2023-03-02T07:01:03;56.50;;;32.00;;
44452;SDS011;30155;52.164;21.236;2023-03-02T07:05:58;57.10;;;31.00;;
44452;SDS011;30155;52.164;21.236;2023-03-02T07:10:51;47.90;;;25.30;;
44452;SDS011;30155;52.164;21.236;2023-03-02T07:15:44;52.80;;;30.70;;
44452;SDS011;30155;52.164;21.236;2023-03-02T07:20:36;53.40;;;29.30;;
44452;SDS011;30155;52.164;21.236;2023-03-02T07:25:29;55.50;;;28.10;;
44452;SDS011;30155;52.164;21.236;2023-03-02T07:30:23;59.80;;;28.80;;
44452;SDS011;30155;52.164;21.236;2023-03-02T07:35:16;47.40;;;27.70;;
44452;SDS011;30155;52.164;21.236;2023-03-02T07:40:10;46.80;;;23.40;;
44452;SDS011;30155;52.164;21.236;2023-03-02T07:45:04;47.50;;;27.00;;
44452;SDS011;30155;52.164;21.236;2023-03-02T07:49:57;50.50;;;28.00;;
44452;SDS011;30155;52.164;21.236;2023-03-02T07:54:50;53.50;;;27.80;;
44452;SDS011;30155;52.164;21.236;2023-03-02T07:59:43;40.00;;;22.80;;
44452;SDS011;30155;52.164;21.236;2023-03-02T08:04:36;46.20;;;25.20;;
44452;SDS011;30155;52.164;21.236;2023-03-02T08:09:29;47.70;;;27.10;;
44452;SDS011;30155;52.164;21.236;2023-03-02T08:14:21;48.20;;;25.40;;
44452;SDS011;30155;52.164;21.236;2023-03-02T08:19:14;43.80;;;24.00;;
44452;SDS011;30155;52.164;21.236;2023-03-02T08:24:07;42.90;;;25.20;;
44452;SDS011;30155;52.164;21.236;2023-03-02T08:29:00;31.60;;;18.70;;
44452;SDS011;30155;52.164;21.236;2023-03-02T08:33:53;38.60;;;20.60;;
44452;SDS011;30155;52.164;21.236;2023-03-02T08:38:46;32.30;;;18.50;;
44452;SDS011;30155;52.164;21.236;2023-03-02T08:43:40;36.40;;;21.20;;
44452;SDS011;30155;52.164;21.236;2023-03-02T08:48:33;31.10;;;18.00;;
44452;SDS011;30155;52.164;21.236;2023-03-02T08:53:26;32.60;;;21.00;;
44452;SDS011;30155;52.164;21.236;2023-03-02T08:58:22;37.30;;;21.20;;
44452;SDS011;30155;52.164;21.236;2023-03-02T09:03:14;35.90;;;21.30;;
44452;SDS011;30155;52.164;21.236;2023-03-02T09:08:08;34.90;;;18.20;;
44452;SDS011;30155;52.164;21.236;2023-03-02T09:13:00;34.00;;;20.70;;
44452;SDS011;30155;52.164;21.236;2023-03-02T09:17:53;35.20;;;21.10;;
44452;SDS011;30155;52.164;21.236;2023-03-02T09:22:46;24.20;;;16.60;;
44452;SDS011;30155;52.164;21.236;2023-03-02T09:27:41;19.60;;;12.90;;
44452;SDS011;30155;52.164;21.236;2023-03-02T09:32:34;18.90;;;12.30;;
44452;SDS011;30155;52.164;21.236;2023-03-02T09:37:27;17.20;;;11.20;;
44452;SDS011;30155;52.164;21.236;2023-03-02T09:48:20;21.90;;;13.40;;
44452;SDS011;30155;52.164;21.236;2023-03-02T09:58:16;23.30;;;14.60;;
44452;SDS011;30155;52.164;21.236;2023-03-02T10:03:15;16.00;;;10.60;;
44452;SDS011;30155;52.164;21.236;2023-03-02T10:08:10;13.90;;;8.80;;
44452;SDS011;30155;52.164;21.236;2023-03-02T10:18:22;26.20;;;16.10;;
44452;SDS011;30155;52.164;21.236;2023-03-02T10:28:26;28.50;;;17.10;;
44452;SDS011;30155;52.164;21.236;2023-03-02T10:33:24;23.90;;;15.00;;
44452;SDS011;30155;52.164;21.236;2023-03-02T10:38:22;22.40;;;14.30;;
44452;SDS011;30155;52.164;21.236;2023-03-02T10:48:12;11.10;;;8.20;;
44452;SDS011;30155;52.164;21.236;2023-03-02T10:53:06;19.00;;;12.40;;
44452;SDS011;30155;52.164;21.236;2023-03-02T11:03:20;16.70;;;11.00;;
44452;SDS011;30155;52.164;21.236;2023-03-02T11:08:18;18.70;;;10.70;;
44452;SDS011;30155;52.164;21.236;2023-03-02T11:18:23;17.20;;;11.20;;
44452;SDS011;30155;52.164;21.236;2023-03-02T11:39:28;19.80;;;12.40;;
44452;SDS011;30155;52.164;21.236;2023-03-02T11:49:38;25.10;;;14.70;;
44452;SDS011;30155;52.164;21.236;2023-03-02T11:54:39;23.80;;;14.30;;
44452;SDS011;30155;52.164;21.236;2023-03-02T11:59:36;26.90;;;17.30;;
44452;SDS011;30155;52.164;21.236;2023-03-02T12:04:31;24.90;;;16.90;;
44452;SDS011;30155;52.164;21.236;2023-03-02T12:09:28;26.00;;;17.10;;
44452;SDS011;30155;52.164;21.236;2023-03-02T12:14:37;26.30;;;15.90;;
44452;SDS011;30155;52.164;21.236;2023-03-02T12:19:39;24.60;;;17.00;;
44452;SDS011;30155;52.164;21.236;2023-03-02T12:24:37;23.30;;;14.90;;
44452;SDS011;30155;52.164;21.236;2023-03-02T12:34:41;23.60;;;16.00;;
44452;SDS011;30155;52.164;21.236;2023-03-02T12:50:35;21.40;;;13.70;;
44452;SDS011;30155;52.164;21.236;2023-03-02T12:55:31;21.00;;;13.00;;
44452;SDS011;30155;52.164;21.236;2023-03-02T13:00:26;21.80;;;12.50;;
44452;SDS011;30155;52.164;21.236;2023-03-02T13:05:30;15.50;;;10.70;;
44452;SDS011;30155;52.164;21.236;2023-03-02T13:15:27;13.70;;;9.70;;
44452;SDS011;30155;52.164;21.236;2023-03-02T13:20:20;12.70;;;9.10;;
44452;SDS011;30155;52.164;21.236;2023-03-02T13:25:24;13.60;;;9.90;;
44452;SDS011;30155;52.164;21.236;2023-03-02T13:30:26;15.10;;;10.40;;
44452;SDS011;30155;52.164;21.236;2023-03-02T13:35:22;14.30;;;10.30;;
44452;SDS011;30155;52.164;21.236;2023-03-02T13:45:26;12.20;;;8.70;;
44452;SDS011;30155;52.164;21.236;2023-03-02T13:55:15;13.00;;;8.50;;
44452;SDS011;30155;52.164;21.236;2023-03-02T14:00:11;11.70;;;9.20;;
44452;SDS011;30155;52.164;21.236;2023-03-02T14:05:08;14.60;;;9.90;;
44452;SDS011;30155;52.164;21.236;2023-03-02T14:10:13;13.00;;;9.90;;
44452;SDS011;30155;52.164;21.236;2023-03-02T14:15:08;15.10;;;10.40;;
44452;SDS011;30155;52.164;21.236;2023-03-02T14:20:05;14.90;;;10.50;;
44452;SDS011;30155;52.164;21.236;2023-03-02T14:25:02;14.80;;;11.20;;
44452;SDS011;30155;52.164;21.236;2023-03-02T14:29:55;18.30;;;10.70;;
44452;SDS011;30155;52.164;21.236;2023-03-02T14:34:48;15.10;;;10.60;;
44452;SDS011;30155;52.164;21.236;2023-03-02T14:39:47;19.90;;;11.80;;
44452;SDS011;30155;52.164;21.236;2023-03-02T14:44:46;18.60;;;12.60;;
44452;SDS011;30155;52.164;21.236;2023-03-02T14:49:39;19.50;;;11.30;;
44452;SDS011;30155;52.164;21.236;2023-03-02T14:54:37;18.50;;;10.80;;
44452;SDS011;30155;52.164;21.236;2023-03-02T14:59:35;16.00;;;10.10;;
44452;SDS011;30155;52.164;21.236;2023-03-02T15:04:27;15.40;;;10.90;;
44452;SDS011;30155;52.164;21.236;2023-03-02T15:09:20;27.50;;;18.80;;
44452;SDS011;30155;52.164;21.236;2023-03-02T15:14:13;19.10;;;13.10;;
44452;SDS011;30155;52.164;21.236;2023-03-02T15:19:06;16.00;;;11.20;;
44452;SDS011;30155;52.164;21.236;2023-03-02T15:23:59;20.30;;;13.30;;
44452;SDS011;30155;52.164;21.236;2023-03-02T15:28:52;19.50;;;12.80;;
44452;SDS011;30155;52.164;21.236;2023-03-02T15:33:45;28.80;;;18.00;;
44452;SDS011;30155;52.164;21.236;2023-03-02T15:38:38;36.00;;;20.60;;
44452;SDS011;30155;52.164;21.236;2023-03-02T15:43:31;32.30;;;20.40;;
44452;SDS011;30155;52.164;21.236;2023-03-02T15:48:24;20.50;;;12.20;;
44452;SDS011;30155;52.164;21.236;2023-03-02T15:53:17;20.20;;;13.00;;
44452;SDS011;30155;52.164;21.236;2023-03-02T15:58:10;20.60;;;13.50;;
44452;SDS011;30155;52.164;21.236;2023-03-02T16:03:02;17.30;;;12.30;;
44452;SDS011;30155;52.164;21.236;2023-03-02T16:07:55;16.40;;;11.50;;
44452;SDS011;30155;52.164;21.236;2023-03-02T16:12:48;16.20;;;11.50;;
44452;SDS011;30155;52.164;21.236;2023-03-02T16:17:41;17.70;;;11.10;;
44452;SDS011;30155;52.164;21.236;2023-03-02T16:22:34;16.10;;;11.00;;
44452;SDS011;30155;52.164;21.236;2023-03-02T16:27:26;25.30;;;12.40;;
44452;SDS011;30155;52.164;21.236;2023-03-02T16:32:20;19.70;;;12.40;;
44452;SDS011;30155;52.164;21.236;2023-03-02T16:37:13;17.20;;;10.40;;
44452;SDS011;30155;52.164;21.236;2023-03-02T16:42:06;16.30;;;11.10;;
44452;SDS011;30155;52.164;21.236;2023-03-02T16:46:58;16.60;;;11.40;;
44452;SDS011;30155;52.164;21.236;2023-03-02T16:51:55;17.60;;;10.90;;
44452;SDS011;30155;52.164;21.236;2023-03-02T16:56:49;18.40;;;11.90;;
44452;SDS011;30155;52.164;21.236;2023-03-02T17:01:42;14.50;;;10.80;;
44452;SDS011;30155;52.164;21.236;2023-03-02T17:06:35;13.40;;;10.30;;
44452;SDS011;30155;52.164;21.236;2023-03-02T17:11:29;17.60;;;11.70;;
44452;SDS011;30155;52.164;21.236;2023-03-02T17:16:22;16.60;;;10.40;;
44452;SDS011;30155;52.164;21.236;2023-03-02T17:21:16;16.10;;;10.80;;
44452;SDS011;30155;52.164;21.236;2023-03-02T17:26:09;16.10;;;11.00;;
44452;SDS011;30155;52.164;21.236;2023-03-02T17:31:02;16.10;;;10.70;;
44452;SDS011;30155;52.164;21.236;2023-03-02T17:35:55;16.80;;;10.30;;
44452;SDS011;30155;52.164;21.236;2023-03-02T17:40:47;16.60;;;10.30;;
44452;SDS011;30155;52.164;21.236;2023-03-02T17:45:40;14.10;;;10.40;;
44452;SDS011;30155;52.164;21.236;2023-03-02T17:56:02;15.60;;;9.70;;
44452;SDS011;30155;52.164;21.236;2023-03-02T18:00:54;18.00;;;11.90;;
44452;SDS011;30155;52.164;21.236;2023-03-02T18:05:47;17.40;;;10.80;;
44452;SDS011;30155;52.164;21.236;2023-03-02T18:10:40;16.70;;;10.50;;
44452;SDS011;30155;52.164;21.236;2023-03-02T18:15:34;22.60;;;11.80;;
44452;SDS011;30155;52.164;21.236;2023-03-02T18:20:26;22.30;;;12.60;;
44452;SDS011;30155;52.164;21.236;2023-03-02T18:25:19;19.40;;;11.60;;
44452;SDS011;30155;52.164;21.236;2023-03-02T18:30:12;22.80;;;15.10;;
44452;SDS011;30155;52.164;21.236;2023-03-02T18:35:05;22.10;;;15.10;;
44452;SDS011;30155;52.164;21.236;2023-03-02T18:39:59;21.50;;;13.80;;
44452;SDS011;30155;52.164;21.236;2023-03-02T18:44:52;23.90;;;15.40;;
44452;SDS011;30155;52.164;21.236;2023-03-02T18:49:45;24.00;;;15.50;;
44452;SDS011;30155;52.164;21.236;2023-03-02T18:54:38;23.60;;;14.90;;
44452;SDS011;30155;52.164;21.236;2023-03-02T18:59:33;21.80;;;14.50;;
44452;SDS011;30155;52.164;21.236;2023-03-02T19:04:27;23.60;;;15.80;;
44452;SDS011;30155;52.164;21.236;2023-03-02T19:09:21;29.80;;;18.90;;
44452;SDS011;30155;52.164;21.236;2023-03-02T19:14:14;25.90;;;18.30;;
44452;SDS011;30155;52.164;21.236;2023-03-02T19:19:08;29.60;;;20.10;;
44452;SDS011;30155;52.164;21.236;2023-03-02T19:24:01;28.40;;;20.20;;
44452;SDS011;30155;52.164;21.236;2023-03-02T19:28:54;32.30;;;20.20;;
44452;SDS011;30155;52.164;21.236;2023-03-02T19:33:46;42.30;;;25.70;;
44452;SDS011;30155;52.164;21.236;2023-03-02T19:38:39;37.60;;;24.60;;
44452;SDS011;30155;52.164;21.236;2023-03-02T19:43:35;37.00;;;23.60;;
44452;SDS011;30155;52.164;21.236;2023-03-02T19:48:29;48.20;;;30.20;;
44452;SDS011;30155;52.164;21.236;2023-03-02T19:53:22;51.30;;;31.40;;
44452;SDS011;30155;52.164;21.236;2023-03-02T19:58:15;62.30;;;36.80;;
44452;SDS011;30155;52.164;21.236;2023-03-02T20:03:10;61.90;;;37.90;;
44452;SDS011;30155;52.164;21.236;2023-03-02T20:08:03;73.30;;;43.40;;
44452;SDS011;30155;52.164;21.236;2023-03-02T20:12:58;61.90;;;37.70;;
44452;SDS011;30155;52.164;21.236;2023-03-02T20:17:51;67.40;;;39.70;;
44452;SDS011;30155;52.164;21.236;2023-03-02T20:22:44;78.00;;;47.60;;
44452;SDS011;30155;52.164;21.236;2023-03-02T20:27:37;79.20;;;43.60;;
44452;SDS011;30155;52.164;21.236;2023-03-02T20:32:30;91.70;;;53.30;;
44452;SDS011;30155;52.164;21.236;2023-03-02T20:37:22;88.00;;;53.60;;
44452;SDS011;30155;52.164;21.236;2023-03-02T20:42:16;98.60;;;57.00;;
44452;SDS011;30155;52.164;21.236;2023-03-02T20:47:10;84.70;;;52.80;;
44452;SDS011;30155;52.164;21.236;2023-03-02T20:52:06;87.80;;;55.30;;
44452;SDS011;30155;52.164;21.236;2023-03-02T20:57:00;88.30;;;52.50;;
44452;SDS011;30155;52.164;21.236;2023-03-02T21:01:56;81.80;;;50.70;;
44452;SDS011;30155;52.164;21.236;2023-03-02T21:06:50;89.90;;;56.00;;
44452;SDS011;30155;52.164;21.236;2023-03-02T21:11:44;88.80;;;53.50;;
44452;SDS011;30155;52.164;21.236;2023-03-02T21:16:38;100.40;;;61.50;;
44452;SDS011;30155;52.164;21.236;2023-03-02T21:21:33;93.90;;;53.10;;
44452;SDS011;30155;52.164;21.236;2023-03-02T21:26:32;86.40;;;52.60;;
44452;SDS011;30155;52.164;21.236;2023-03-02T21:31:26;93.30;;;55.70;;
44452;SDS011;30155;52.164;21.236;2023-03-02T21:36:20;94.90;;;58.00;;
44452;SDS011;30155;52.164;21.236;2023-03-02T21:41:15;87.40;;;54.70;;
44452;SDS011;30155;52.164;21.236;2023-03-02T21:46:12;92.30;;;54.80;;
44452;SDS011;30155;52.164;21.236;2023-03-02T21:51:06;96.80;;;57.90;;
44452;SDS011;30155;52.164;21.236;2023-03-02T21:55:59;86.30;;;54.00;;
44452;SDS011;30155;52.164;21.236;2023-03-02T22:00:52;92.40;;;58.60;;
44452;SDS011;30155;52.164;21.236;2023-03-02T22:05:45;93.80;;;56.70;;
44452;SDS011;30155;52.164;21.236;2023-03-02T22:11:01;114.20;;;67.40;;
44452;SDS011;30155;52.164;21.236;2023-03-02T22:16:14;98.70;;;62.00;;
44452;SDS011;30155;52.164;21.236;2023-03-02T22:21:41;120.00;;;75.20;;
44452;SDS011;30155;52.164;21.236;2023-03-02T22:26:57;120.00;;;74.90;;
44452;SDS011;30155;52.164;21.236;2023-03-02T22:32:25;120.10;;;75.30;;
44452;SDS011;30155;52.164;21.236;2023-03-02T22:37:50;119.30;;;72.10;;
44452;SDS011;30155;52.164;21.236;2023-03-02T22:48:22;122.10;;;75.80;;
44452;SDS011;30155;52.164;21.236;2023-03-02T22:53:32;118.10;;;73.10;;
44452;SDS011;30155;52.164;21.236;2023-03-02T22:58:50;117.40;;;72.80;;
44452;SDS011;30155;52.164;21.236;2023-03-02T23:03:44;117.10;;;71.20;;
44452;SDS011;30155;52.164;21.236;2023-03-02T23:08:38;115.30;;;72.20;;
44452;SDS011;30155;52.164;21.236;2023-03-02T23:13:38;114.80;;;70.40;;
44452;SDS011;30155;52.164;21.236;2023-03-02T23:18:32;121.50;;;72.30;;
44452;SDS011;30155;52.164;21.236;2023-03-02T23:23:25;115.10;;;71.50;;
44452;SDS011;30155;52.164;21.236;2023-03-02T23:28:19;115.80;;;67.10;;
44452;SDS011;30155;52.164;21.236;2023-03-02T23:33:12;122.40;;;67.80;;
44452;SDS011;30155;52.164;21.236;2023-03-02T23:38:06;111.20;;;64.20;;
44452;SDS011;30155;52.164;21.236;2023-03-02T23:43:05;103.00;;;58.90;;
44452;SDS011;30155;52.164;21.236;2023-03-02T23:53:26;115.40;;;65.70;;
44452;SDS011;30155;52.164;21.236;2023-03-02T23:58:53;110.20;;;64.30;;
